turnitin.com alexa rank chart, turnitin.com alexa rank daily changes

turnitin.com alexa rank chart, turnitin.com alexa rank daily changes

turnitin.com
Actual rank:
1 197

RANK HISTORY

Date Rank Diff
2018/05/26 1 197 -88
2018/05/25 1 285 +154
2018/05/24 1 131 +18
2018/05/23 1 113 -440
2018/05/22 1 553 -448
2018/05/21 2 001 +879
2018/05/20 1 122 -54
2018/05/19 1 176 -15
2018/05/18 1 191 +42
2018/05/17 1 149 +113
2018/05/16 1 036 -425
2018/05/15 1 461 -250
2018/05/14 1 711 +448
2018/05/13 1 263 +168
2018/05/12 1 095 +9
2018/05/11 1 086 -13
2018/05/10 1 099 +173
2018/05/09 926 -538
2018/05/08 1 464 -330
2018/05/07 1 794 +662
2018/05/06 1 132 +124
2018/05/05 1 008 -61
2018/05/04 1 069 +157
2018/05/03 912 +58
2018/05/02 854 -438
2018/05/01 1 292 -205
2018/04/30 1 497 +472
2018/04/29 1 025 -34
2018/04/28 1 059 -477
2018/04/27 1 536 +529
2018/04/26 1 007 +115
2018/04/25 892 -302
2018/04/24 1 194 -341
2018/04/23 1 535 +347
2018/04/22 1 188 +155
2018/04/21 1 033 -28
2018/04/20 1 061 +25
2018/04/19 1 036 +72
2018/04/18 964 -447
2018/04/17 1 411 -594
2018/04/16 2 005 +863
2018/04/15 1 142 +14
2018/04/14 1 128 -95
2018/04/13 1 223 +83
2018/04/12 1 140 +199
2018/04/11 941 -334
2018/04/10 1 275 -540
2018/04/09 1 815 +501
2018/04/08 1 314 -65
2018/04/07 1 379 +104
2018/04/06 1 275 -154
2018/04/05 1 429 +200
2018/04/04 1 229 -804
2018/04/03 2 033 -63
2018/04/02 2 096 +456
2018/04/01 1 640 +333
2018/03/31 1 307 -36
2018/03/30 1 343 +49
2018/03/29 1 294 +170
2018/03/28 1 124 -618
2018/03/27 1 742

WIDGET FOR YOUR SITE

DOMAINS WITH THE NEAREST RANK

Domain Rank
edx.org 1 192
dawn.com 1 193
mtime.com 1 194
adme.ru 1 195
coursehero.com 1 196
turnitin.com 1 197
unblocked.lat 1 198
creditkarma.com 1 199
rozetka.com.ua 1 200
calcch.com 1 201
libgen.io 1 202

DOMAINS WITH THE NEAREST RANK BY TLD .com

Domain Rank
ancestry.com 1 190
icy-veins.com 1 191
dawn.com 1 193
mtime.com 1 194
coursehero.com 1 196
turnitin.com 1 197
creditkarma.com 1 199
calcch.com 1 201
ytimg.com 1 203
gotomeeting.com 1 205
sakshi.com 1 206